createdAt,value
2017-09-13T06:23:35.726Z,80.69
2017-09-13T06:24:44.578Z,81.07
2017-09-13T06:25:53.499Z,80.88
2017-09-13T06:27:02.641Z,80.98
2017-09-13T06:28:11.479Z,81.65
2017-09-13T06:29:20.861Z,81.45
2017-09-13T06:30:30.097Z,82.98
2017-09-13T06:31:39.034Z,83.75
2017-09-13T06:32:48.026Z,84.8
2017-09-13T06:33:57.340Z,86.61
2017-09-13T06:35:06.241Z,87.57
2017-09-13T06:36:15.124Z,89.48
2017-09-13T06:37:24.354Z,90.82
2017-09-13T06:38:33.274Z,92.64
2017-09-13T06:39:42.109Z,93.4
2017-09-13T06:40:51.184Z,94.7
2017-09-13T06:42:00.018Z,95.07
2017-09-13T06:43:08.851Z,95.56
2017-09-13T06:44:17.691Z,96.32
2017-09-13T06:45:26.530Z,97.18
2017-09-13T06:46:35.366Z,97.94
2017-09-13T06:47:44.198Z,98.8
2017-09-13T06:48:53.293Z,99.95
2017-09-13T06:50:02.731Z,99.99
2017-09-13T06:51:12.415Z,99.85
2017-09-13T06:52:21.282Z,99.99
2017-09-13T06:53:30.116Z,99.99
2017-09-13T06:54:39.042Z,99.99
2017-09-13T06:55:48.236Z,99.99
2017-09-13T06:56:57.071Z,99.99
2017-09-13T06:58:06.436Z,99.99
2017-09-13T06:59:15.473Z,99.99
2017-09-13T07:00:24.310Z,99.99
2017-09-13T07:01:33.494Z,99.99
2017-09-13T07:02:42.329Z,99.99
2017-09-13T07:03:51.164Z,99.99
2017-09-13T07:05:00.017Z,99.99
2017-09-13T07:06:09.385Z,99.99
2017-09-13T07:07:18.688Z,99.99
2017-09-13T07:08:27.524Z,99.99
2017-09-13T07:09:36.369Z,99.99
2017-09-13T07:10:45.362Z,99.99
2017-09-13T07:11:54.284Z,99.99
2017-09-13T07:13:03.121Z,99.99
2017-09-13T07:14:11.958Z,99.99
2017-09-13T07:15:20.898Z,99.99
2017-09-13T07:16:31.086Z,99.99
2017-09-13T07:17:40.240Z,99.99
2017-09-13T07:18:49.509Z,99.99
2017-09-13T07:19:58.364Z,99.99
2017-09-13T07:21:07.525Z,99.99
2017-09-13T07:22:16.358Z,99.99
2017-09-13T07:23:25.553Z,99.99
2017-09-13T07:24:34.532Z,99.99
2017-09-13T07:25:43.420Z,99.99
2017-09-13T07:26:52.423Z,99.99
2017-09-13T07:28:01.359Z,99.99
2017-09-13T07:29:10.194Z,99.99
2017-09-13T07:30:19.064Z,99.99
2017-09-13T07:31:28.745Z,99.99
2017-09-13T07:32:37.943Z,99.99
2017-09-13T07:33:46.841Z,99.99
2017-09-13T07:34:55.742Z,99.99
2017-09-13T07:36:04.955Z,99.99
2017-09-13T07:37:13.967Z,99.99
2017-09-13T07:38:23.290Z,99.99
2017-09-13T07:39:32.196Z,99.99
2017-09-13T07:40:41.028Z,99.99
2017-09-13T07:41:49.863Z,99.99
2017-09-13T07:42:59.224Z,99.99
2017-09-13T07:44:08.059Z,99.99
2017-09-13T07:45:17.040Z,99.99
2017-09-13T07:46:26.376Z,99.99
2017-09-13T07:47:35.261Z,99.99
2017-09-13T07:48:44.436Z,99.99
2017-09-13T07:49:53.414Z,99.99
2017-09-13T07:51:02.544Z,99.99
2017-09-13T07:52:11.752Z,99.99
2017-09-13T07:53:20.739Z,99.99
2017-09-13T07:54:29.904Z,99.99
2017-09-13T07:55:38.743Z,99.99
2017-09-13T07:56:47.855Z,99.99
2017-09-13T07:57:56.774Z,99.99
2017-09-13T07:59:05.800Z,99.99
2017-09-13T08:00:14.764Z,99.99
2017-09-13T08:01:23.645Z,99.99
2017-09-13T08:02:32.509Z,99.99
2017-09-13T08:03:41.375Z,99.99
2017-09-13T08:04:50.184Z,99.99
2017-09-13T08:05:59.021Z,99.99
2017-09-13T08:07:07.857Z,99.99
2017-09-13T08:08:16.830Z,99.99
2017-09-13T08:09:26.594Z,99.99
2017-09-13T08:10:35.433Z,99.99
2017-09-13T08:11:44.267Z,99.99
2017-09-13T08:12:53.098Z,99.99
2017-09-13T08:14:02.095Z,99.99
2017-09-13T08:15:10.977Z,99.99
2017-09-13T08:16:20.110Z,99.99
2017-09-13T08:17:28.944Z,99.99
2017-09-13T08:18:38.130Z,99.99
2017-09-13T08:19:46.961Z,99.99
2017-09-13T08:20:56.142Z,99.99
2017-09-13T08:22:05.456Z,99.99
2017-09-13T08:23:14.692Z,99.99
2017-09-13T08:24:23.717Z,99.99
2017-09-13T08:25:32.555Z,99.99
2017-09-13T08:26:41.387Z,99.99
2017-09-13T08:27:50.222Z,99.99
2017-09-13T08:28:59.053Z,99.99
2017-09-13T08:30:07.890Z,99.99
2017-09-13T08:31:16.723Z,99.99
2017-09-13T08:32:25.561Z,99.99
2017-09-13T08:33:34.388Z,99.99
2017-09-13T08:34:43.218Z,99.99
2017-09-13T08:35:52.059Z,99.99
2017-09-13T08:37:00.896Z,99.99
2017-09-13T08:38:09.974Z,99.99
2017-09-13T08:39:19.777Z,99.99
2017-09-13T08:40:29.095Z,99.99
2017-09-13T08:41:38.373Z,99.99
2017-09-13T08:42:47.210Z,99.99
2017-09-13T08:43:56.049Z,99.99
2017-09-13T08:45:04.918Z,99.99
2017-09-13T08:46:13.755Z,99.99
2017-09-13T08:47:22.812Z,99.99
2017-09-13T08:48:31.649Z,99.99
2017-09-13T08:49:40.484Z,99.99
2017-09-13T08:50:49.317Z,99.99
2017-09-13T08:51:58.151Z,99.99
2017-09-13T08:53:07.058Z,99.99
2017-09-13T08:54:16.030Z,99.99
2017-09-13T08:55:24.904Z,99.99
2017-09-13T08:56:34.268Z,99.99
2017-09-13T08:57:43.793Z,99.99
2017-09-13T08:58:53.672Z,99.99
2017-09-13T09:00:03.371Z,99.99
2017-09-13T09:01:13.086Z,99.99
2017-09-13T09:02:22.385Z,99.99
2017-09-13T09:03:31.543Z,99.99
2017-09-13T09:04:40.376Z,99.99
2017-09-13T09:05:49.538Z,99.99
2017-09-13T09:06:58.369Z,99.99
2017-09-13T09:08:07.202Z,99.99
2017-09-13T09:09:16.038Z,99.99
2017-09-13T09:10:24.876Z,99.99
2017-09-13T09:11:33.712Z,99.99
2017-09-13T09:12:42.543Z,99.99
2017-09-13T09:13:51.380Z,99.99
2017-09-13T09:15:00.210Z,99.99
2017-09-13T09:16:09.046Z,99.99
2017-09-13T09:17:17.879Z,99.99
2017-09-13T09:18:27.042Z,99.99
2017-09-13T09:19:35.874Z,99.99
2017-09-13T09:20:44.706Z,99.99
2017-09-13T09:21:53.542Z,99.99
2017-09-13T09:23:02.377Z,99.99
2017-09-13T09:24:11.207Z,99.99
2017-09-13T09:25:20.047Z,99.99
2017-09-13T09:26:28.882Z,99.99
2017-09-13T09:27:37.717Z,99.99
2017-09-13T09:28:46.547Z,99.99
2017-09-13T09:29:55.383Z,99.99
2017-09-13T09:31:04.217Z,99.99
2017-09-13T09:32:13.056Z,99.99
2017-09-13T09:33:21.892Z,99.99
2017-09-13T09:34:30.717Z,99.99
2017-09-13T09:35:39.559Z,99.99
2017-09-13T09:36:48.393Z,99.99
2017-09-13T09:37:57.225Z,99.99
2017-09-13T09:39:06.064Z,99.99
2017-09-13T09:40:14.893Z,99.99
2017-09-13T09:41:23.725Z,99.99
2017-09-13T09:42:32.561Z,99.99
2017-09-13T09:43:41.401Z,99.99
2017-09-13T09:44:50.234Z,99.99
2017-09-13T09:45:59.069Z,99.99
2017-09-13T09:47:07.903Z,99.99
2017-09-13T09:48:16.732Z,99.99
2017-09-13T09:49:25.568Z,99.99
2017-09-13T09:50:34.405Z,99.99
2017-09-13T09:51:43.237Z,99.99
2017-09-13T09:52:52.072Z,99.99
2017-09-13T09:54:00.903Z,99.99
2017-09-13T09:55:09.739Z,99.99
2017-09-13T09:56:18.575Z,99.99
2017-09-13T09:57:27.408Z,99.99
2017-09-13T09:58:36.235Z,99.99
2017-09-13T09:59:45.067Z,99.99
2017-09-13T10:00:53.904Z,99.99
2017-09-13T10:02:02.740Z,99.99
2017-09-13T10:03:11.576Z,99.99
2017-09-13T10:04:20.409Z,99.99
2017-09-13T10:05:29.241Z,99.99
2017-09-13T10:06:38.073Z,99.99
2017-09-13T10:07:46.907Z,99.99
2017-09-13T10:08:55.742Z,99.99
2017-09-13T10:10:04.573Z,99.99
2017-09-13T10:11:13.409Z,99.99
2017-09-13T10:12:22.609Z,99.99
2017-09-13T10:13:31.767Z,99.99
2017-09-13T10:14:40.604Z,99.99
2017-09-13T10:15:49.439Z,99.99
2017-09-13T10:16:58.273Z,99.99
2017-09-13T10:18:07.108Z,99.99
2017-09-13T10:19:15.943Z,99.99
2017-09-13T10:20:24.776Z,99.99
2017-09-13T10:21:33.617Z,99.99
2017-09-13T10:22:42.451Z,99.99
2017-09-13T10:23:51.613Z,99.99
2017-09-13T10:25:00.448Z,99.99
2017-09-13T10:26:09.282Z,99.99
2017-09-13T10:27:18.113Z,99.99
2017-09-13T10:28:26.955Z,99.99
2017-09-13T10:29:35.784Z,99.99
2017-09-13T10:30:44.624Z,99.99
2017-09-13T10:31:53.456Z,99.99
2017-09-13T10:33:02.290Z,99.99
2017-09-13T10:34:11.124Z,99.99
2017-09-13T10:35:19.955Z,99.99
2017-09-13T10:36:28.786Z,99.99
2017-09-13T10:37:37.945Z,99.99
2017-09-13T10:38:46.780Z,99.99
2017-09-13T10:39:55.611Z,99.99
2017-09-13T10:41:04.445Z,99.99
2017-09-13T10:42:13.282Z,99.99
2017-09-13T10:43:22.113Z,99.99
2017-09-13T10:44:30.947Z,99.99
2017-09-13T10:45:39.780Z,99.99
2017-09-13T10:46:48.618Z,99.99
2017-09-13T10:47:57.771Z,99.99
2017-09-13T10:49:06.613Z,99.99
2017-09-13T10:50:15.452Z,99.99
2017-09-13T10:51:24.288Z,99.99
2017-09-13T10:52:33.124Z,99.99
2017-09-13T10:53:41.960Z,99.99
2017-09-13T10:54:50.795Z,99.99
2017-09-13T10:55:59.630Z,99.99
2017-09-13T10:57:08.470Z,99.99
2017-09-13T10:58:17.304Z,99.99
2017-09-13T10:59:26.142Z,99.99
2017-09-13T11:00:34.977Z,99.99
2017-09-13T11:01:43.806Z,99.99
2017-09-13T11:02:52.648Z,99.99
2017-09-13T11:04:01.483Z,99.99
2017-09-13T11:05:10.317Z,99.99
2017-09-13T11:06:19.155Z,99.99
2017-09-13T11:07:27.988Z,99.99
2017-09-13T11:08:36.822Z,99.99
2017-09-13T11:09:45.656Z,99.99
2017-09-13T11:10:54.495Z,99.99
2017-09-13T11:12:03.326Z,99.99
2017-09-13T11:13:12.165Z,99.99
2017-09-13T11:14:20.998Z,99.99
2017-09-13T11:15:29.835Z,99.99
2017-09-13T11:16:38.995Z,99.99
2017-09-13T11:17:47.831Z,99.99
2017-09-13T11:18:56.665Z,99.99
2017-09-13T11:20:05.500Z,99.99
2017-09-13T11:21:14.664Z,99.99
2017-09-13T11:22:23.495Z,99.99
2017-09-13T11:23:32.336Z,99.99
2017-09-13T11:24:41.171Z,99.99
2017-09-13T11:25:50.011Z,99.99
2017-09-13T11:26:58.842Z,99.99
2017-09-13T11:28:08.004Z,99.99
2017-09-13T11:29:16.835Z,99.99
2017-09-13T11:30:25.679Z,99.99
2017-09-13T11:31:34.519Z,99.99
2017-09-13T11:32:43.353Z,99.99
2017-09-13T11:33:52.189Z,99.99
2017-09-13T11:35:01.024Z,99.99
2017-09-13T11:36:09.863Z,99.99
2017-09-13T11:37:18.699Z,99.99
2017-09-13T11:38:27.538Z,99.99
2017-09-13T11:39:36.376Z,99.99
2017-09-13T11:40:45.211Z,99.99
2017-09-13T11:41:54.050Z,99.99
2017-09-13T11:43:02.882Z,99.99
2017-09-13T11:44:11.718Z,99.99
2017-09-13T11:45:20.554Z,99.99
2017-09-13T11:46:29.386Z,99.99
2017-09-13T11:47:38.216Z,99.99
2017-09-13T11:48:47.055Z,99.99
2017-09-13T11:49:55.896Z,99.99
2017-09-13T11:51:04.731Z,99.99
2017-09-13T11:52:13.571Z,99.99
2017-09-13T11:53:22.403Z,99.99
2017-09-13T11:54:31.238Z,99.99
2017-09-13T11:55:40.073Z,99.99
2017-09-13T11:56:48.909Z,99.99
2017-09-13T11:57:57.745Z,99.99
2017-09-13T11:59:06.607Z,99.99
2017-09-13T12:00:15.418Z,99.99
2017-09-13T12:01:24.255Z,99.99
2017-09-13T12:02:33.094Z,99.99
2017-09-13T12:03:42.267Z,99.99
2017-09-13T12:04:51.099Z,99.99
2017-09-13T12:05:59.937Z,99.99
2017-09-13T12:07:08.771Z,99.99
2017-09-13T12:08:17.611Z,99.99
2017-09-13T12:09:26.448Z,99.99
2017-09-13T12:10:35.613Z,99.99
2017-09-13T12:11:44.447Z,99.99
2017-09-13T12:12:53.288Z,99.99
2017-09-13T12:14:02.117Z,99.99
2017-09-13T12:15:10.951Z,99.99
2017-09-13T12:16:19.792Z,99.99
2017-09-13T12:17:28.622Z,99.99
2017-09-13T12:18:37.463Z,99.99
2017-09-13T12:19:46.294Z,99.99
2017-09-13T12:20:55.138Z,99.99
2017-09-13T12:22:03.972Z,99.99
2017-09-13T12:23:12.809Z,99.99
2017-09-13T12:24:21.643Z,99.99
2017-09-13T12:25:30.484Z,99.99
2017-09-13T12:26:39.326Z,99.99
2017-09-13T12:27:48.158Z,99.99
2017-09-13T12:28:57.327Z,99.99
2017-09-13T12:30:06.161Z,99.99
2017-09-13T12:31:14.999Z,99.99
2017-09-13T12:32:23.837Z,99.99
2017-09-13T12:33:32.671Z,99.99
2017-09-13T12:34:41.509Z,99.99
2017-09-13T12:35:50.347Z,99.99
2017-09-13T12:36:59.188Z,99.99
2017-09-13T12:38:08.027Z,99.99
2017-09-13T12:39:16.861Z,99.99
2017-09-13T12:40:25.700Z,99.99
2017-09-13T12:41:34.859Z,99.99
2017-09-13T12:42:43.697Z,99.99
2017-09-13T12:43:52.533Z,99.99
2017-09-13T12:45:01.367Z,99.99
2017-09-13T12:46:10.204Z,99.99
2017-09-13T12:47:19.041Z,99.99
2017-09-13T12:48:27.875Z,99.99
2017-09-13T12:49:36.713Z,99.99
2017-09-13T12:50:45.548Z,99.99
2017-09-13T12:51:54.381Z,99.99
2017-09-13T12:53:03.221Z,99.99
2017-09-13T12:54:12.063Z,99.99
2017-09-13T12:55:20.908Z,99.99
2017-09-13T12:56:30.067Z,99.99
2017-09-13T12:57:38.902Z,99.99
2017-09-13T12:58:47.743Z,99.99
2017-09-13T12:59:56.578Z,99.99
2017-09-13T13:01:05.742Z,99.99
2017-09-13T13:02:14.574Z,99.99
2017-09-13T13:03:23.413Z,99.99
2017-09-13T13:04:32.247Z,99.99
2017-09-13T13:05:41.083Z,99.99
2017-09-13T13:06:49.925Z,99.99
2017-09-13T13:07:58.764Z,99.99
2017-09-13T13:09:07.598Z,99.99
2017-09-13T13:10:16.432Z,99.99
2017-09-13T13:11:25.277Z,99.99
2017-09-13T13:12:34.111Z,99.99
2017-09-13T13:13:42.948Z,99.99
2017-09-13T13:14:51.786Z,99.99
2017-09-13T13:16:00.628Z,99.99
2017-09-13T13:17:09.460Z,99.99
2017-09-13T13:18:18.297Z,99.99
2017-09-13T13:19:27.130Z,99.99
2017-09-13T13:20:35.972Z,99.99
2017-09-13T13:21:44.814Z,99.99
2017-09-13T13:22:53.659Z,99.99
2017-09-13T13:24:02.496Z,99.99
2017-09-13T13:25:11.334Z,99.99
2017-09-13T13:26:20.169Z,99.99
2017-09-13T13:27:29.005Z,99.99
2017-09-13T13:28:37.844Z,99.99
2017-09-13T13:29:46.686Z,99.99
2017-09-13T13:30:55.508Z,99.99
2017-09-13T13:32:04.351Z,99.99
2017-09-13T13:33:13.185Z,99.99
2017-09-13T13:34:22.026Z,99.99
2017-09-13T13:35:30.863Z,99.99
2017-09-13T13:36:39.701Z,99.99
2017-09-13T13:37:48.539Z,99.99
2017-09-13T13:38:57.378Z,99.99
2017-09-13T13:40:06.221Z,99.99
2017-09-13T13:41:15.308Z,99.99
2017-09-13T13:42:25.263Z,99.99
2017-09-13T13:43:35.368Z,99.99
2017-09-13T13:44:45.371Z,99.99
2017-09-13T13:45:55.639Z,99.99
2017-09-13T13:47:04.966Z,99.99
2017-09-13T13:48:14.601Z,99.99
2017-09-13T13:49:23.444Z,99.99
2017-09-13T13:50:32.291Z,99.99
2017-09-13T13:51:41.126Z,99.99
2017-09-13T13:52:49.966Z,99.99
2017-09-13T13:53:59.134Z,99.99
2017-09-13T13:55:07.969Z,99.99
2017-09-13T13:56:16.808Z,99.99
2017-09-13T13:57:25.647Z,99.99
2017-09-13T13:58:34.487Z,99.99
2017-09-13T13:59:43.327Z,99.99
2017-09-13T14:00:52.188Z,99.99
2017-09-13T14:02:01.046Z,99.99
2017-09-13T14:03:09.916Z,99.99
2017-09-13T14:04:18.767Z,99.99
2017-09-13T14:05:27.628Z,99.99
2017-09-13T14:06:36.489Z,99.99
2017-09-13T14:07:45.346Z,99.99
2017-09-13T14:08:54.194Z,99.99
2017-09-13T14:10:03.060Z,99.99
2017-09-13T14:11:11.955Z,99.99
2017-09-13T14:12:20.803Z,99.99
2017-09-13T14:13:29.669Z,99.99
2017-09-13T14:14:38.528Z,99.99
2017-09-13T14:15:47.390Z,99.99
2017-09-13T14:16:56.277Z,99.99
2017-09-13T14:18:05.134Z,99.99
2017-09-13T14:19:14.297Z,99.99
2017-09-13T14:20:24.122Z,99.99
2017-09-13T14:21:33.026Z,99.99
2017-09-13T14:22:41.887Z,99.99
2017-09-13T14:23:50.743Z,99.99
2017-09-13T14:24:59.602Z,99.99
2017-09-13T14:26:08.471Z,99.15
2017-09-13T14:27:17.337Z,99.99
2017-09-13T14:28:26.194Z,99.99
2017-09-13T14:29:35.049Z,99.99
2017-09-13T14:30:43.909Z,99.99
2017-09-13T14:31:52.765Z,99.99
2017-09-13T14:33:01.635Z,99.99
2017-09-13T14:34:10.816Z,99.99
2017-09-13T14:35:19.672Z,99.99
2017-09-13T14:36:28.527Z,99.99
2017-09-13T14:37:37.390Z,99.99
2017-09-13T14:38:46.254Z,99.99
2017-09-13T14:39:55.108Z,99.99
2017-09-13T14:41:03.960Z,99.99
2017-09-13T14:42:12.810Z,99.99
2017-09-13T14:43:21.991Z,99.99
2017-09-13T14:44:30.853Z,99.99
2017-09-13T14:45:39.732Z,99.99
2017-09-13T14:46:48.915Z,99.99
2017-09-13T14:47:57.778Z,99.99
2017-09-13T14:49:06.645Z,99.99
2017-09-13T14:50:15.501Z,99.99
2017-09-13T14:51:24.368Z,99.99
2017-09-13T14:52:33.224Z,99.99
2017-09-13T14:53:42.073Z,99.99
2017-09-13T14:54:51.006Z,99.99
2017-09-13T14:55:59.842Z,99.99
2017-09-13T14:57:08.683Z,99.99
2017-09-13T14:58:17.524Z,99.99
2017-09-13T14:59:26.773Z,99.99
2017-09-13T15:00:35.625Z,99.99
2017-09-13T15:01:44.481Z,99.99
2017-09-13T15:02:54.188Z,99.99
2017-09-13T15:04:03.178Z,99.99
2017-09-13T15:05:12.018Z,99.99
2017-09-13T15:06:21.257Z,99.99
2017-09-13T15:07:30.095Z,99.99
2017-09-13T15:08:39.032Z,99.99
2017-09-13T15:09:47.870Z,99.99
2017-09-13T15:10:56.717Z,99.99
2017-09-13T15:12:05.628Z,99.99
2017-09-13T15:13:14.672Z,99.99
2017-09-13T15:14:23.997Z,99.99
2017-09-13T15:15:33.237Z,99.99
2017-09-13T15:16:42.302Z,99.99
2017-09-13T15:17:51.144Z,99.99
2017-09-13T15:19:00.024Z,99.99
2017-09-13T15:20:08.878Z,99.99
2017-09-13T15:21:17.773Z,99.99
2017-09-13T15:22:26.683Z,99.99
2017-09-13T15:23:35.563Z,99.99
2017-09-13T15:24:44.479Z,99.99
2017-09-13T15:25:53.335Z,99.99
2017-09-13T15:27:02.391Z,99.99
2017-09-13T15:28:11.264Z,99.99
2017-09-13T15:29:20.164Z,99.99
2017-09-13T15:30:29.002Z,99.99
2017-09-13T15:31:37.903Z,99.99
2017-09-13T15:32:46.740Z,99.99
2017-09-13T15:33:55.575Z,99.99
2017-09-13T15:35:04.423Z,99.99
2017-09-13T15:36:13.260Z,99.99
2017-09-13T15:37:22.237Z,99.99
2017-09-13T15:38:31.380Z,99.99
2017-09-13T15:39:40.216Z,99.99
2017-09-13T15:40:49.125Z,99.99
2017-09-13T15:41:58.088Z,99.99
2017-09-13T15:43:06.928Z,99.99
2017-09-13T15:44:16.135Z,99.99
2017-09-13T15:45:24.966Z,99.99
2017-09-13T15:46:33.916Z,99.99
2017-09-13T15:47:42.875Z,99.99
2017-09-13T15:48:51.836Z,99.99
2017-09-13T15:50:00.696Z,99.99
2017-09-13T15:51:09.736Z,99.99
2017-09-13T15:52:18.903Z,99.99
2017-09-13T15:53:27.744Z,99.99
2017-09-13T15:54:36.714Z,99.99
2017-09-13T15:55:45.759Z,99.99
2017-09-13T15:56:54.599Z,99.99
2017-09-13T15:58:03.447Z,99.99
2017-09-13T15:59:12.282Z,99.99
2017-09-13T16:00:21.123Z,99.99
2017-09-13T16:01:29.960Z,99.99
2017-09-13T16:02:38.795Z,99.99
2017-09-13T16:03:47.633Z,99.99
2017-09-13T16:04:56.470Z,99.99
2017-09-13T16:06:05.300Z,99.99
2017-09-13T16:07:14.138Z,99.99
2017-09-13T16:08:22.974Z,99.99
2017-09-13T16:09:31.810Z,99.99
2017-09-13T16:10:40.646Z,99.99
2017-09-13T16:11:49.481Z,99.99
2017-09-13T16:12:58.645Z,99.99
2017-09-13T16:14:07.482Z,99.99
2017-09-13T16:15:16.318Z,99.99
2017-09-13T16:16:25.155Z,99.99
2017-09-13T16:17:33.993Z,99.99
2017-09-13T16:18:42.822Z,99.99
2017-09-13T16:19:51.659Z,99.99
2017-09-13T16:21:00.494Z,99.99
2017-09-13T16:22:09.328Z,99.99
2017-09-13T16:23:18.162Z,99.99
2017-09-13T16:24:26.999Z,99.99
2017-09-13T16:25:35.832Z,99.99
2017-09-13T16:26:44.668Z,99.99
2017-09-13T16:27:53.628Z,99.99
2017-09-13T16:29:02.544Z,99.99
2017-09-13T16:30:11.528Z,99.99
2017-09-13T16:31:20.431Z,99.99
2017-09-13T16:32:29.435Z,99.99
2017-09-13T16:33:38.295Z,99.99
2017-09-13T16:34:47.204Z,99.99
2017-09-13T16:35:56.336Z,99.99
2017-09-13T16:37:05.178Z,99.99
2017-09-13T16:38:14.112Z,99.99
2017-09-13T16:39:22.945Z,99.99
2017-09-13T16:40:32.194Z,99.99
2017-09-13T16:41:41.035Z,99.99
2017-09-13T16:42:49.908Z,99.99
2017-09-13T16:43:58.761Z,99.99
2017-09-13T16:45:07.594Z,99.99
2017-09-13T16:46:16.551Z,99.99
2017-09-13T16:47:25.389Z,99.99
2017-09-13T16:48:34.239Z,99.99
2017-09-13T16:49:43.116Z,99.99
2017-09-13T16:50:52.083Z,99.99
2017-09-13T16:52:00.924Z,99.99
2017-09-13T16:53:09.791Z,99.99
2017-09-13T16:54:18.626Z,99.99
2017-09-13T16:55:27.604Z,99.99
2017-09-13T16:56:36.517Z,99.99
2017-09-13T16:57:45.491Z,99.99
2017-09-13T16:58:54.469Z,99.99
2017-09-13T17:00:03.403Z,99.99
2017-09-13T17:01:12.305Z,99.99
2017-09-13T17:02:21.195Z,99.99
2017-09-13T17:03:30.106Z,99.99
2017-09-13T17:04:39.102Z,99.99
2017-09-13T17:05:47.989Z,99.99
2017-09-13T17:06:56.909Z,99.99
2017-09-13T17:08:05.803Z,99.99
2017-09-13T17:09:14.822Z,99.99
2017-09-13T17:10:23.730Z,99.99
2017-09-13T17:11:32.841Z,99.99
2017-09-13T17:12:41.737Z,99.99
2017-09-13T17:13:50.956Z,99.99
2017-09-13T17:14:59.934Z,99.99
2017-09-13T17:16:08.770Z,99.99
2017-09-13T17:17:18.189Z,99.99
2017-09-13T17:18:27.073Z,99.99
2017-09-13T17:19:36.042Z,99.99
2017-09-13T17:20:44.899Z,99.99
2017-09-13T17:21:53.732Z,99.99
2017-09-13T17:23:02.568Z,99.99
2017-09-13T17:24:11.405Z,99.99
2017-09-13T17:25:20.236Z,99.99
2017-09-13T17:26:29.072Z,99.99
2017-09-13T17:27:37.905Z,99.99
2017-09-13T17:28:46.745Z,99.99
2017-09-13T17:29:55.580Z,99.99
2017-09-13T17:31:04.416Z,99.99
2017-09-13T17:32:13.247Z,99.99
2017-09-13T17:33:22.091Z,99.99
2017-09-13T17:34:30.930Z,99.99
2017-09-13T17:35:39.760Z,99.99
2017-09-13T17:36:48.597Z,99.99
2017-09-13T17:37:57.432Z,99.99
2017-09-13T17:39:06.276Z,99.99
2017-09-13T17:40:15.112Z,99.99
2017-09-13T17:41:23.949Z,99.99
2017-09-13T17:42:32.784Z,99.99
2017-09-13T17:43:41.622Z,99.99
2017-09-13T17:44:50.457Z,99.99
2017-09-13T17:45:59.296Z,99.99
2017-09-13T17:47:08.133Z,99.99
2017-09-13T17:48:16.975Z,99.99
2017-09-13T17:49:25.811Z,99.99
2017-09-13T17:50:34.645Z,99.99
2017-09-13T17:51:43.480Z,99.99
2017-09-13T17:52:52.314Z,99.99
2017-09-13T17:54:01.486Z,99.99
2017-09-13T17:55:10.324Z,99.99
2017-09-13T17:56:19.153Z,99.99
2017-09-13T17:57:27.999Z,99.99
2017-09-13T17:58:36.837Z,99.99
2017-09-13T17:59:45.676Z,99.99
2017-09-13T18:00:54.510Z,99.99
2017-09-13T18:02:03.352Z,99.99
2017-09-13T18:03:12.186Z,99.99
2017-09-13T18:04:21.017Z,99.99
2017-09-13T18:05:29.853Z,99.99
2017-09-13T18:06:39.098Z,99.99
2017-09-13T18:07:47.934Z,99.99
2017-09-13T18:08:56.836Z,99.99
2017-09-13T18:10:05.710Z,99.99
2017-09-13T18:11:14.571Z,99.99
2017-09-13T18:12:23.420Z,99.99
2017-09-13T18:13:32.274Z,99.99
2017-09-13T18:14:41.117Z,99.99
2017-09-13T18:15:49.980Z,99.99
2017-09-13T18:16:58.837Z,99.99
2017-09-13T18:18:07.699Z,99.99
2017-09-13T18:19:16.559Z,99.99
2017-09-13T18:20:25.742Z,99.99
2017-09-13T18:21:34.593Z,99.99
2017-09-13T18:22:43.443Z,99.99
2017-09-13T18:23:52.302Z,99.99
2017-09-13T18:25:01.159Z,99.99
2017-09-13T18:26:10.021Z,99.99
2017-09-13T18:27:18.876Z,99.99
2017-09-13T18:28:27.721Z,99.99
2017-09-13T18:29:36.576Z,99.99
2017-09-13T18:30:45.435Z,99.99
2017-09-13T18:31:54.630Z,99.99
2017-09-13T18:33:03.477Z,99.99
2017-09-13T18:34:12.331Z,99.99
2017-09-13T18:35:21.186Z,99.99
2017-09-13T18:36:30.050Z,99.99
2017-09-13T18:37:38.907Z,99.99
2017-09-13T18:38:47.763Z,99.99
2017-09-13T18:39:56.616Z,99.99
2017-09-13T18:41:05.473Z,99.99
2017-09-13T18:42:14.341Z,99.99
2017-09-13T18:43:23.201Z,99.99
2017-09-13T18:44:32.059Z,99.99
2017-09-13T18:45:40.912Z,99.99
2017-09-13T18:46:49.763Z,99.99
2017-09-13T18:47:58.624Z,99.99
2017-09-13T18:49:07.488Z,99.99
2017-09-13T18:50:16.346Z,99.99
2017-09-13T18:51:25.205Z,99.99
2017-09-13T18:52:34.064Z,99.99
2017-09-13T18:53:43.251Z,99.99
2017-09-13T18:54:52.113Z,99.99
2017-09-13T18:56:00.974Z,99.99
2017-09-13T18:57:09.825Z,99.99
2017-09-13T18:58:18.686Z,99.99
2017-09-13T18:59:27.547Z,99.99
2017-09-13T19:00:36.401Z,99.99
2017-09-13T19:01:45.262Z,99.99
2017-09-13T19:02:54.163Z,99.99
2017-09-13T19:04:03.025Z,99.99
2017-09-13T19:05:11.878Z,99.99
2017-09-13T19:06:20.738Z,99.99
2017-09-13T19:07:29.595Z,99.99
2017-09-13T19:08:38.450Z,99.99
2017-09-13T19:09:47.307Z,99.99
2017-09-13T19:10:56.168Z,99.99
2017-09-13T19:12:05.018Z,99.99
2017-09-13T19:13:13.883Z,99.99
2017-09-13T19:14:22.705Z,99.99
2017-09-13T19:15:31.546Z,99.99
2017-09-13T19:16:40.382Z,99.99
2017-09-13T19:17:49.220Z,99.99
2017-09-13T19:18:58.058Z,99.99
2017-09-13T19:20:06.898Z,99.99
2017-09-13T19:21:16.069Z,99.99
2017-09-13T19:22:24.901Z,99.99
2017-09-13T19:23:33.739Z,99.99
2017-09-13T19:24:42.582Z,99.99
2017-09-13T19:25:51.419Z,99.99
2017-09-13T19:27:00.329Z,99.99
2017-09-13T19:28:09.165Z,99.99
2017-09-13T19:29:18.002Z,99.99
2017-09-13T19:30:26.840Z,99.99
2017-09-13T19:31:35.678Z,99.99
2017-09-13T19:32:44.512Z,99.99
2017-09-13T19:33:53.354Z,99.99
2017-09-13T19:35:02.191Z,99.99
2017-09-13T19:36:11.024Z,99.99
2017-09-13T19:37:19.864Z,99.99
2017-09-13T19:38:28.703Z,99.99
2017-09-13T19:39:37.535Z,99.99
2017-09-13T19:40:46.373Z,99.99
2017-09-13T19:41:55.211Z,99.99
2017-09-13T19:43:04.048Z,99.99
2017-09-13T19:44:12.889Z,99.99
2017-09-13T19:45:21.740Z,99.99
2017-09-13T19:46:30.561Z,99.99
2017-09-13T19:47:39.394Z,99.99
2017-09-13T19:48:48.231Z,99.99
2017-09-13T19:49:57.071Z,99.99
2017-09-13T19:51:05.909Z,99.99
2017-09-13T19:52:14.744Z,99.99
2017-09-13T19:53:23.579Z,99.99
2017-09-13T19:54:32.420Z,99.99
2017-09-13T19:55:41.255Z,99.99
2017-09-13T19:56:50.090Z,99.99
2017-09-13T19:57:58.932Z,99.99
2017-09-13T19:59:07.775Z,99.99
2017-09-13T20:00:16.604Z,99.99
2017-09-13T20:01:25.444Z,99.99
2017-09-13T20:02:34.603Z,99.99
2017-09-13T20:03:43.441Z,99.99
2017-09-13T20:04:52.277Z,99.99
2017-09-13T20:06:01.115Z,99.99
2017-09-13T20:07:09.948Z,99.99
2017-09-13T20:08:18.793Z,99.99
2017-09-13T20:09:27.629Z,99.99
2017-09-13T20:10:36.470Z,99.99
2017-09-13T20:11:45.298Z,99.99
2017-09-13T20:12:54.134Z,99.99
2017-09-13T20:14:02.974Z,99.99
2017-09-13T20:15:11.815Z,99.99
2017-09-13T20:16:20.649Z,99.99
2017-09-13T20:17:29.487Z,99.99
2017-09-13T20:18:38.327Z,99.99
2017-09-13T20:19:47.159Z,99.99
2017-09-13T20:20:56.331Z,99.99
2017-09-13T20:22:05.244Z,99.99
2017-09-13T20:23:14.075Z,99.99
2017-09-13T20:24:22.913Z,99.99
2017-09-13T20:25:31.748Z,99.99
2017-09-13T20:26:40.587Z,99.99
2017-09-13T20:27:49.423Z,99.99
2017-09-13T20:28:58.262Z,99.99
2017-09-13T20:30:07.105Z,99.99
2017-09-13T20:31:15.935Z,99.99
2017-09-13T20:32:24.771Z,99.99
2017-09-13T20:33:33.604Z,99.99
2017-09-13T20:34:42.444Z,99.99
2017-09-13T20:35:51.280Z,99.99
2017-09-13T20:37:00.110Z,99.99
2017-09-13T20:38:08.951Z,99.99
2017-09-13T20:39:18.115Z,99.99
2017-09-13T20:40:26.951Z,99.99
2017-09-13T20:41:35.788Z,99.99
2017-09-13T20:42:44.624Z,99.99
2017-09-13T20:43:53.466Z,99.99
2017-09-13T20:45:02.295Z,99.99
2017-09-13T20:46:11.133Z,99.99
2017-09-13T20:47:20.001Z,99.99
2017-09-13T20:48:28.811Z,99.99
2017-09-13T20:49:37.645Z,99.99
2017-09-13T20:50:46.482Z,99.99
2017-09-13T20:51:55.320Z,99.99
2017-09-13T20:53:04.163Z,99.99
2017-09-13T20:54:13.000Z,99.99
2017-09-13T20:55:21.834Z,99.99
2017-09-13T20:56:31.003Z,99.99
2017-09-13T20:57:39.840Z,99.99
2017-09-13T20:58:48.999Z,99.99
2017-09-13T20:59:57.840Z,99.99
2017-09-13T21:01:06.678Z,99.99
2017-09-13T21:02:15.509Z,99.99
2017-09-13T21:03:24.345Z,99.99
2017-09-13T21:04:33.181Z,99.99
2017-09-13T21:05:42.016Z,99.99
2017-09-13T21:06:50.848Z,99.99
2017-09-13T21:07:59.686Z,99.99
2017-09-13T21:09:08.521Z,99.99
2017-09-13T21:10:17.359Z,99.99